Time;durP1;ratioP1;P1;durP2;ratioP2;P2;SDS_P1;SDS_P2;PMS_P1;PMS_P2;Temp;Humidity;BMP_temperature;BMP_pressure;BME280_temperature;BME280_humidity;BME280_pressure;Samples;Min_cycle;Max_cycle;Signal;HPM_P1;HPM_P2
2022/08/25 00:02:14;;;;;;;81.95;77.55;;;;;;;20.64;73.36;96803.06;5072698;28;20239;-65
2022/08/25 00:04:40;;;;;;;91.25;86.32;;;;;;;20.59;73.64;96803.94;5068229;28;20701;-65
2022/08/25 00:07:05;;;;;;;102.53;97.07;;;;;;;20.49;74.12;96800.66;5073497;28;20193;-65
2022/08/25 00:09:33;;;;;;;97.40;92.30;;;;;;;20.56;73.69;96803.75;5073036;28;20196;-65
2022/08/25 00:11:58;;;;;;;104.13;98.55;;;;;;;20.42;74.64;96803.66;5067720;28;20184;-65
2022/08/25 00:14:34;;;;;;;116.40;110.30;;;;;;;20.47;74.42;96802.78;5060459;28;20205;-64
2022/08/25 00:17:00;;;;;;;108.93;103.18;;;;;;;20.53;74.19;96796.31;5054528;28;20186;-65
2022/08/25 00:19:30;;;;;;;99.80;94.47;;;;;;;20.58;73.78;96799.69;5059309;28;20776;-65
2022/08/25 00:21:56;;;;;;;99.32;94.03;;;;;;;20.59;74.20;96797.81;5053043;28;20198;-65
2022/08/25 00:24:23;;;;;;;94.82;89.85;;;;;;;20.51;74.68;96798.47;5053118;28;20192;-64
2022/08/25 00:26:53;;;;;;;88.88;84.13;;;;;;;20.36;75.61;96802.16;5052654;28;20519;-65
2022/08/25 00:29:20;;;;;;;94.97;89.93;;;;;;;20.36;75.71;96798.69;5035218;28;20606;-65
2022/08/25 00:31:46;;;;;;;68.32;64.47;;;;;;;20.39;75.67;96798.13;5052831;28;20193;-65
2022/08/25 00:34:18;;;;;;;60.60;57.10;;;;;;;20.34;76.04;96793.66;5052420;28;20237;-64
2022/08/25 00:36:44;;;;;;;64.43;60.83;;;;;;;20.22;76.69;96804.72;5045518;28;20174;-65
2022/08/25 00:39:10;;;;;;;57.42;53.97;;;;;;;20.23;76.72;96792.19;5052533;28;20650;-64
2022/08/25 00:41:37;;;;;;;85.65;80.78;;;;;;;20.20;77.28;96798.09;5052504;28;20213;-65
2022/08/25 00:44:06;;;;;;;85.68;80.57;;;;;;;20.23;77.28;96800.16;5053017;28;20186;-64
2022/08/25 00:46:39;;;;;;;111.20;104.90;;;;;;;20.25;77.28;96792.69;5052444;28;20194;-64
2022/08/25 00:49:10;;;;;;;121.43;114.65;;;;;;;20.23;77.46;96803.63;5034625;28;20269;-65
2022/08/25 00:52:04;;;;;;;128.25;120.97;;;;;;;20.06;78.43;96802.56;5046112;28;20178;-64
2022/08/25 00:54:35;;;;;;;122.88;116.07;;;;;;;20.14;78.21;96797.38;5049338;28;20310;-65
2022/08/25 00:57:03;;;;;;;113.72;107.28;;;;;;;20.08;78.60;96797.72;5051570;28;20181;-65
2022/08/25 00:59:29;;;;;;;110.70;104.65;;;;;;;20.13;78.53;96795.78;5052135;28;20639;-65
2022/08/25 01:01:56;;;;;;;98.20;92.88;;;;;;;20.06;78.90;96794.56;5052514;28;20190;-65
2022/08/25 01:04:22;;;;;;;79.47;75.13;;;;;;;20.02;79.07;96789.00;5050304;28;20197;-65
2022/08/25 01:06:48;;;;;;;74.30;70.20;;;;;;;19.95;79.62;96790.47;5052025;28;20273;-65
2022/08/25 01:09:15;;;;;;;66.85;63.08;;;;;;;20.03;79.25;96779.97;5051811;28;20181;-65
2022/08/25 01:11:43;;;;;;;56.20;52.97;;;;;;;19.96;79.99;96790.16;5052231;28;20209;-65
2022/08/25 01:14:10;;;;;;;48.15;45.15;;;;;;;19.86;80.44;96783.09;5053547;28;20231;-65
2022/08/25 01:16:37;;;;;;;41.58;39.17;;;;;;;19.88;80.68;96782.81;5056266;28;20216;-65
2022/08/25 01:19:06;;;;;;;42.38;39.92;;;;;;;19.87;80.71;96771.38;5059331;28;20221;-65
2022/08/25 01:21:38;;;;;;;48.47;45.47;;;;;;;19.79;81.45;96772.00;5056879;28;20212;-65
2022/08/25 01:24:04;;;;;;;46.28;43.67;;;;;;;19.97;80.46;96770.47;5068869;28;20184;-65
2022/08/25 01:26:32;;;;;;;49.63;46.63;;;;;;;19.91;81.11;96775.06;5075278;28;20196;-65
2022/08/25 01:31:45;;;;;;;62.85;59.20;;;;;;;19.87;81.23;96779.38;5075983;28;20207;-65
2022/08/25 01:34:11;;;;;;;80.55;76.00;;;;;;;19.76;81.94;96783.22;5056906;28;20197;-64
2022/08/25 01:36:38;;;;;;;87.72;82.85;;;;;;;19.85;81.69;96786.03;5056493;28;20694;-65
2022/08/25 01:39:04;;;;;;;97.40;91.88;;;;;;;19.60;83.27;96791.69;5056341;28;20189;-65
2022/08/25 01:41:30;;;;;;;92.85;87.68;;;;;;;19.67;82.85;96784.16;5059549;28;20261;-65
2022/08/25 01:43:55;;;;;;;94.78;89.50;;;;;;;19.59;83.46;96784.78;5069719;28;20198;-65
2022/08/25 01:46:21;;;;;;;98.15;92.75;;;;;;;19.48;84.51;96776.13;5056158;28;20182;-65
2022/08/25 01:48:46;;;;;;;89.70;84.80;;;;;;;19.46;84.70;96787.03;5056236;28;20193;-65
2022/08/25 01:51:14;;;;;;;101.40;95.85;;;;;;;19.35;85.51;96782.06;5056159;28;20647;-65
2022/08/25 01:53:40;;;;;;;93.57;88.28;;;;;;;19.39;85.66;96783.88;5073868;28;20310;-64
2022/08/25 01:56:14;;;;;;;94.90;89.63;;;;;;;19.40;85.49;96782.81;5068712;28;20197;-65
2022/08/25 01:58:43;;;;;;;93.10;87.88;;;;;;;19.40;85.62;96780.16;5056115;28;20260;-65
2022/08/25 02:01:14;;;;;;;86.85;82.05;;;;;;;19.44;85.33;96780.41;5056410;28;20181;-65
2022/08/25 02:03:43;;;;;;;81.95;77.22;;;;;;;19.48;85.20;96778.78;5059390;28;20224;-65
2022/08/25 02:06:15;;;;;;;69.10;65.00;;;;;;;19.47;85.44;96780.63;5074709;28;20645;-65
2022/08/25 02:08:41;;;;;;;73.28;68.93;;;;;;;19.50;85.04;96773.97;5076168;28;20212;-64
2022/08/25 02:11:10;;;;;;;80.75;75.95;;;;;;;19.43;86.07;96779.59;5075528;28;20188;-66
2022/08/25 02:13:36;;;;;;;74.30;69.90;;;;;;;19.42;85.96;96786.00;5075306;28;20193;-65
2022/08/25 02:16:03;;;;;;;83.13;78.40;;;;;;;19.45;85.91;96784.66;5061637;28;20316;-66
2022/08/25 02:18:29;;;;;;;74.53;70.22;;;;;;;19.36;86.50;96776.47;5056004;28;20226;-65
2022/08/25 02:20:54;;;;;;;71.25;67.15;;;;;;;19.35;86.60;96782.88;5055582;28;20708;-64
2022/08/25 02:23:20;;;;;;;66.85;62.95;;;;;;;19.42;86.16;96780.66;5055417;28;20269;-64
2022/08/25 02:25:46;;;;;;;65.97;62.25;;;;;;;19.23;87.73;96781.66;5055403;28;20582;-64
2022/08/25 02:28:11;;;;;;;59.05;55.53;;;;;;;19.22;87.80;96774.78;5067465;28;20232;-65
2022/08/25 02:30:39;;;;;;;60.40;56.83;;;;;;;19.21;88.65;96778.50;5054702;28;20665;-63
2022/08/25 02:33:05;;;;;;;58.47;55.20;;;;;;;19.31;87.42;96776.53;5055036;28;20186;-64
2022/08/25 02:35:31;;;;;;;56.22;53.05;;;;;;;19.36;87.22;96779.13;5054534;28;20218;-63
2022/08/25 02:37:56;;;;;;;55.05;51.78;;;;;;;19.43;86.45;96779.59;5055158;28;20284;-63
2022/08/25 02:40:22;;;;;;;53.92;50.83;;;;;;;19.47;85.96;96774.53;5055066;28;20224;-63
2022/08/25 02:42:48;;;;;;;53.60;50.38;;;;;;;19.58;85.46;96777.88;5055080;28;20201;-64
2022/08/25 02:45:14;;;;;;;56.63;53.42;;;;;;;19.31;87.17;96775.75;5054750;28;20197;-64
2022/08/25 02:47:40;;;;;;;62.10;58.47;;;;;;;19.25;87.89;96775.00;5055028;28;20537;-64
2022/08/25 02:50:07;;;;;;;55.67;52.42;;;;;;;19.25;87.87;96771.56;5055177;28;20188;-64
2022/08/25 02:52:34;;;;;;;63.38;59.53;;;;;;;19.42;87.07;96774.56;5054924;28;20198;-63
2022/08/25 02:55:02;;;;;;;68.53;64.38;;;;;;;19.48;86.49;96774.25;5054665;28;20295;-63
2022/08/25 02:57:28;;;;;;;75.15;70.68;;;;;;;19.51;86.24;96776.34;5054532;28;20548;-63
2022/08/25 02:59:53;;;;;;;76.20;71.55;;;;;;;19.46;86.52;96770.28;5054570;28;20182;-65
2022/08/25 03:02:19;;;;;;;74.20;69.93;;;;;;;19.46;86.39;96775.59;5054460;28;20190;-66
2022/08/25 03:04:44;;;;;;;74.53;70.22;;;;;;;19.48;85.78;96778.78;5052933;28;20190;-63
2022/08/25 03:07:10;;;;;;;77.07;72.53;;;;;;;19.39;86.25;96778.56;5054641;28;20222;-64
2022/08/25 03:09:36;;;;;;;79.35;74.68;;;;;;;19.29;87.14;96772.56;5054191;28;20182;-64
2022/08/25 03:12:02;;;;;;;80.47;75.65;;;;;;;19.29;87.27;96765.38;5054510;28;20189;-64
2022/08/25 03:14:27;;;;;;;81.07;76.13;;;;;;;19.33;87.00;96774.41;5035918;28;20194;-63
2022/08/25 03:16:53;;;;;;;100.25;93.88;;;;;;;19.41;86.84;96762.34;5054524;28;20638;-65
2022/08/25 03:19:18;;;;;;;112.63;105.55;;;;;;;19.29;87.72;96757.41;5063246;28;20243;-64
2022/08/25 03:21:46;;;;;;;111.60;104.78;;;;;;;19.33;87.51;96766.44;5073768;28;20197;-63
2022/08/25 03:24:12;;;;;;;110.93;104.20;;;;;;;19.15;88.26;96763.69;5065965;28;20264;-64
2022/08/25 03:26:53;;;;;;;126.05;118.28;;;;;;;19.13;88.42;96769.28;5065419;28;20530;-64
2022/08/25 03:29:20;;;;;;;153.48;143.50;;;;;;;19.17;89.49;96764.22;5054974;28;20622;-64
2022/08/25 03:31:45;;;;;;;137.15;128.30;;;;;;;19.22;89.11;96758.84;5071355;28;20347;-65
2022/08/25 03:34:18;;;;;;;168.77;157.90;;;;;;;19.23;89.41;96766.50;5073208;28;20189;-63
2022/08/25 03:36:46;;;;;;;141.32;132.25;;;;;;;19.26;88.71;96767.81;5073308;28;20178;-63
2022/08/25 03:39:12;;;;;;;129.25;121.10;;;;;;;19.29;88.32;96772.56;5072493;28;20634;-64
2022/08/25 03:41:38;;;;;;;152.38;142.18;;;;;;;19.11;89.82;96772.22;5073202;28;20221;-64
2022/08/25 03:44:05;;;;;;;155.15;144.82;;;;;;;19.06;90.43;96768.81;5073176;28;20283;-64
2022/08/25 03:46:34;;;;;;;165.02;154.13;;;;;;;19.13;89.66;96771.94;5072141;28;20579;-64
2022/08/25 03:49:01;;;;;;;161.98;151.50;;;;;;;19.13;89.94;96761.31;5070968;28;20257;-64
2022/08/25 03:51:30;;;;;;;173.48;162.00;;;;;;;19.04;90.30;96769.13;5055361;28;20190;-64
2022/08/25 03:53:57;;;;;;;197.43;185.00;;;;;;;18.86;91.76;96766.34;5056632;28;20273;-64
2022/08/25 03:56:23;;;;;;;218.05;204.50;;;;;;;18.91;91.81;96759.13;5054770;28;20177;-64
2022/08/25 03:58:48;;;;;;;226.40;212.63;;;;;;;18.84;92.54;96763.97;5053863;28;20189;-64
2022/08/25 04:01:15;;;;;;;270.98;254.77;;;;;;;18.90;91.77;96756.75;5054975;28;20184;-64
2022/08/25 04:03:40;;;;;;;283.45;266.85;;;;;;;18.91;91.71;96751.16;5065517;28;20262;-64
2022/08/25 04:06:07;;;;;;;289.23;272.70;;;;;;;18.86;91.95;96753.06;5073429;28;20217;-64
2022/08/25 04:08:33;;;;;;;306.08;288.40;;;;;;;18.80;92.24;96757.63;5060812;28;20173;-64
2022/08/25 04:11:03;;;;;;;290.83;273.60;;;;;;;18.73;92.74;96754.50;5070744;28;20710;-65
2022/08/25 04:13:29;;;;;;;313.15;294.10;;;;;;;18.90;91.56;96748.78;5072990;28;20170;-64
2022/08/25 04:15:54;;;;;;;312.88;293.67;;;;;;;18.96;91.15;96752.97;5066631;28;20282;-64
2022/08/25 04:18:19;;;;;;;325.95;305.67;;;;;;;18.78;92.05;96748.38;5052455;28;20224;-65
2022/08/25 04:20:46;;;;;;;327.77;307.30;;;;;;;18.76;92.30;96746.00;5053320;28;20190;-64
2022/08/25 04:23:11;;;;;;;335.95;314.70;;;;;;;18.81;92.09;96761.09;5052781;28;20577;-64
2022/08/25 04:25:43;;;;;;;343.58;320.95;;;;;;;18.85;91.54;96749.63;5052523;28;20272;-64
2022/08/25 04:28:09;;;;;;;361.50;338.05;;;;;;;18.77;92.19;96755.56;5053418;28;20532;-64
2022/08/25 04:30:35;;;;;;;376.13;351.95;;;;;;;18.89;91.11;96763.16;5052861;28;20598;-65
2022/08/25 04:33:00;;;;;;;391.35;366.45;;;;;;;18.81;91.62;96759.22;5034625;28;20182;-64
2022/08/25 04:35:26;;;;;;;379.40;355.60;;;;;;;18.99;90.83;96758.53;5053204;28;20258;-64
2022/08/25 04:37:51;;;;;;;370.85;347.92;;;;;;;19.04;90.22;96758.47;5052671;28;20221;-64
2022/08/25 04:40:16;;;;;;;320.60;301.40;;;;;;;18.98;91.13;96754.28;5052710;28;20182;-64
2022/08/25 04:42:43;;;;;;;344.17;324.02;;;;;;;19.00;91.01;96754.78;5052931;28;20254;-64
2022/08/25 04:45:09;;;;;;;376.05;353.58;;;;;;;18.88;91.60;96759.69;5052171;28;20300;-63
2022/08/25 04:47:38;;;;;;;379.63;356.80;;;;;;;18.91;91.66;96768.97;5051796;28;20323;-64
2022/08/25 04:50:05;;;;;;;380.85;357.55;;;;;;;18.96;91.43;96776.88;5052624;28;20178;-64
2022/08/25 04:52:31;;;;;;;379.83;356.75;;;;;;;19.05;90.65;96762.72;5052522;28;20209;-64
2022/08/25 04:54:56;;;;;;;360.83;338.90;;;;;;;18.94;91.38;96763.91;5052366;28;20249;-69
2022/08/25 04:57:21;;;;;;;339.92;319.42;;;;;;;19.01;91.13;96768.88;5034876;28;20267;-64
2022/08/25 04:59:47;;;;;;;302.10;284.17;;;;;;;19.11;90.19;96764.25;5034371;28;20190;-64
2022/08/25 05:02:13;;;;;;;312.63;293.90;;;;;;;19.07;89.90;96773.06;5050246;28;20193;-64
2022/08/25 05:04:38;;;;;;;304.27;285.95;;;;;;;19.18;89.92;96776.41;5052718;28;20182;-63
2022/08/25 05:07:04;;;;;;;216.93;203.85;;;;;;;19.16;90.11;96771.38;5052256;28;20178;-64
2022/08/25 05:09:30;;;;;;;94.45;89.20;;;;;;;19.56;87.93;96778.13;5052522;28;20174;-64
2022/08/25 05:11:55;;;;;;;106.50;100.53;;;;;;;19.88;85.74;96777.50;5052486;28;20649;-63
2022/08/25 05:14:21;;;;;;;65.40;61.67;;;;;;;19.72;86.83;96773.44;5052381;28;20202;-64
2022/08/25 05:16:48;;;;;;;48.03;45.25;;;;;;;19.92;85.26;96775.84;5051625;28;20665;-64
2022/08/25 05:19:13;;;;;;;66.63;62.75;;;;;;;20.12;84.07;96764.91;5061038;28;20260;-64
2022/08/25 05:21:39;;;;;;;113.35;107.07;;;;;;;20.40;82.26;96757.88;5071010;28;20658;-64
2022/08/25 05:24:06;;;;;;;96.55;91.32;;;;;;;20.22;83.04;96753.34;5066334;28;20720;-64
2022/08/25 05:26:33;;;;;;;73.10;68.93;;;;;;;20.12;83.93;96748.16;5056407;28;20272;-64
2022/08/25 05:29:03;;;;;;;44.47;41.92;;;;;;;20.19;83.09;96759.25;5052431;28;20182;-64
2022/08/25 05:31:29;;;;;;;32.78;30.58;;;;;;;20.41;83.00;96758.69;5052235;28;20194;-66
2022/08/25 05:33:55;;;;;;;44.28;41.78;;;;;;;20.88;79.80;96757.66;5053564;28;20180;-65
2022/08/25 05:36:23;;;;;;;55.90;52.50;;;;;;;20.65;80.33;96749.50;5059580;28;20219;-64
2022/08/25 05:38:49;;;;;;;62.00;58.53;;;;;;;20.85;79.97;96747.56;5072116;28;20264;-64
2022/08/25 05:41:16;;;;;;;51.10;48.10;;;;;;;20.51;81.42;96756.66;5069823;28;20191;-64
2022/08/25 05:43:44;;;;;;;45.03;42.33;;;;;;;20.72;80.04;96760.59;5052296;28;20642;-64
2022/08/25 05:46:11;;;;;;;44.88;42.28;;;;;;;21.04;78.83;96754.44;5052994;28;20276;-63
2022/08/25 05:48:37;;;;;;;44.63;42.08;;;;;;;21.27;78.30;96751.94;5071965;28;20185;-64
2022/08/25 05:51:05;;;;;;;46.83;44.00;;;;;;;21.01;78.57;96751.59;5070266;28;20252;-64
2022/08/25 05:53:31;;;;;;;43.13;40.58;;;;;;;20.60;81.31;96751.47;5058989;28;20186;-64
2022/08/25 05:55:58;;;;;;;45.88;43.25;;;;;;;21.12;79.05;96743.06;5051571;28;20213;-64
2022/08/25 05:58:27;;;;;;;48.05;45.28;;;;;;;20.56;81.55;96739.81;5068871;28;20229;-64
2022/08/25 06:00:53;;;;;;;62.72;59.17;;;;;;;20.73;81.57;96734.75;5059053;28;20630;-63
2022/08/25 06:03:18;;;;;;;65.07;61.28;;;;;;;20.88;80.71;96739.00;5074997;28;20272;-64
2022/08/25 06:05:44;;;;;;;65.40;61.80;;;;;;;21.14;79.52;96737.47;5074745;28;20612;-63
2022/08/25 06:08:09;;;;;;;50.08;46.80;;;;;;;21.07;78.94;96732.50;5075036;28;20231;-63
2022/08/25 06:10:35;;;;;;;53.67;50.35;;;;;;;21.18;78.59;96743.03;5074431;28;20665;-64
2022/08/25 06:13:01;;;;;;;60.35;56.85;;;;;;;21.51;77.14;96739.97;5075403;28;20653;-63
2022/08/25 06:15:27;;;;;;;64.90;61.20;;;;;;;22.28;73.88;96739.16;5074849;28;20270;-64
2022/08/25 06:17:53;;;;;;;102.95;97.03;;;;;;;22.53;71.74;96743.09;5056579;28;20189;-69
2022/08/25 06:20:22;;;;;;;69.45;65.47;;;;;;;22.12;73.02;96741.41;5056716;28;20757;-63
2022/08/25 06:22:49;;;;;;;71.03;66.80;;;;;;;22.82;70.20;96745.38;5055591;28;20642;-63
2022/08/25 06:25:17;;;;;;;65.40;61.75;;;;;;;22.93;69.14;96739.47;5058828;28;20193;-64
2022/08/25 06:27:43;;;;;;;61.58;57.72;;;;;;;21.91;72.81;96754.34;5074017;28;20544;-63
2022/08/25 06:30:11;;;;;;;90.18;85.20;;;;;;;21.36;76.69;96742.94;5055128;28;20645;-63
2022/08/25 06:32:39;;;;;;;100.25;94.65;;;;;;;21.27;77.07;96751.94;5055560;28;20185;-64
2022/08/25 06:35:07;;;;;;;120.18;113.65;;;;;;;21.80;75.17;96738.84;5057308;28;20301;-63
2022/08/25 06:37:33;;;;;;;106.57;100.68;;;;;;;22.18;73.88;96750.09;5073675;28;20270;-64
2022/08/25 06:39:59;;;;;;;119.88;113.43;;;;;;;22.21;72.92;96747.59;5075037;28;20200;-64
2022/08/25 06:42:24;;;;;;;98.78;93.25;;;;;;;22.50;72.16;96749.06;5066639;28;20182;-63
2022/08/25 06:44:49;;;;;;;87.95;83.05;;;;;;;23.04;69.76;96748.00;5071082;28;20211;-64
2022/08/25 06:47:15;;;;;;;90.38;85.45;;;;;;;23.26;68.53;96745.28;5072433;28;20226;-64
2022/08/25 06:49:41;;;;;;;43.80;41.08;;;;;;;22.66;70.15;96744.94;5054889;28;20202;-64
2022/08/25 06:52:07;;;;;;;32.38;30.42;;;;;;;22.63;70.57;96746.31;5055056;28;20650;-64
2022/08/25 06:54:32;;;;;;;29.20;27.10;;;;;;;22.11;73.10;96752.38;5054704;28;20209;-64
2022/08/25 06:56:57;;;;;;;35.47;33.20;;;;;;;22.65;71.61;96744.16;5054770;28;20170;-64
2022/08/25 06:59:23;;;;;;;30.98;29.08;;;;;;;22.77;70.90;96748.97;5038965;28;20277;-64
2022/08/25 07:01:48;;;;;;;28.95;26.95;;;;;;;23.06;69.66;96735.13;5074087;28;20232;-63
2022/08/25 07:04:13;;;;;;;24.77;23.05;;;;;;;23.42;68.15;96741.09;5075181;28;20185;-64
2022/08/25 07:06:39;;;;;;;35.75;33.10;;;;;;;22.90;69.85;96732.06;5075059;28;20177;-64
2022/08/25 07:09:07;;;;;;;20.90;19.48;;;;;;;22.93;69.80;96728.78;5074837;28;20181;-64
2022/08/25 07:11:33;;;;;;;19.05;17.75;;;;;;;23.00;69.77;96731.81;5073924;28;20177;-64
2022/08/25 07:14:04;;;;;;;22.30;20.63;;;;;;;22.68;70.90;96732.06;5072198;28;20197;-65
2022/08/25 07:16:30;;;;;;;26.02;24.30;;;;;;;22.84;70.54;96733.28;5074281;28;20284;-64
2022/08/25 07:18:55;;;;;;;32.22;30.05;;;;;;;22.48;71.65;96733.34;5072448;28;20311;-64
2022/08/25 07:21:22;;;;;;;25.45;23.67;;;;;;;22.34;72.10;96727.28;5067728;28;20186;-64
2022/08/25 07:23:48;;;;;;;20.00;18.30;;;;;;;23.05;69.55;96733.56;5070788;28;20181;-64
2022/08/25 07:26:20;;;;;;;33.17;30.67;;;;;;;23.32;68.05;96740.59;5061033;28;20233;-66
2022/08/25 07:28:45;;;;;;;57.00;53.70;;;;;;;23.13;67.24;96727.44;5055620;28;20186;-65
2022/08/25 07:31:11;;;;;;;79.38;74.82;;;;;;;22.39;70.73;96730.63;5058220;28;20192;-64
2022/08/25 07:33:36;;;;;;;71.68;67.43;;;;;;;22.93;69.56;96728.78;5059592;28;20621;-64
2022/08/25 07:36:02;;;;;;;78.25;73.88;;;;;;;23.17;67.81;96720.41;5054585;28;20198;-64
2022/08/25 07:38:28;;;;;;;58.35;54.88;;;;;;;23.07;69.42;96720.69;5054628;28;20220;-64
2022/08/25 07:41:00;;;;;;;68.90;64.75;;;;;;;23.14;68.67;96715.66;5055369;28;20218;-64
2022/08/25 07:43:26;;;;;;;70.45;66.50;;;;;;;22.74;70.47;96718.28;5065428;28;20272;-64
2022/08/25 07:45:51;;;;;;;75.03;70.93;;;;;;;23.13;68.92;96722.09;5074002;28;20276;-64
2022/08/25 07:48:18;;;;;;;74.88;70.53;;;;;;;22.69;69.61;96722.94;5074128;28;20177;-64
2022/08/25 07:50:45;;;;;;;62.35;58.72;;;;;;;23.13;68.21;96719.41;5073888;28;20272;-64
2022/08/25 07:53:12;;;;;;;58.85;55.42;;;;;;;22.51;70.35;96726.63;5061954;28;20181;-65
2022/08/25 07:55:37;;;;;;;68.80;64.85;;;;;;;22.74;69.40;96734.31;5068862;28;20201;-66
2022/08/25 07:58:05;;;;;;;82.70;77.97;;;;;;;22.59;69.95;96733.88;5070978;28;20200;-65
2022/08/25 08:00:32;;;;;;;77.10;72.68;;;;;;;22.58;70.13;96729.63;5057854;28;21917;-64
2022/08/25 08:03:00;;;;;;;61.30;57.72;;;;;;;23.23;68.58;96729.06;5073139;28;20181;-64
2022/08/25 08:05:26;;;;;;;70.18;66.05;;;;;;;22.66;69.62;96726.22;5073806;28;20243;-64
2022/08/25 08:07:53;;;;;;;60.65;57.20;;;;;;;23.15;67.90;96718.03;5071650;28;20188;-64
2022/08/25 08:10:19;;;;;;;30.95;28.95;;;;;;;23.61;65.45;96722.16;5055215;28;20186;-64
2022/08/25 08:12:45;;;;;;;30.20;28.20;;;;;;;23.63;65.10;96729.88;5053681;28;20281;-64
2022/08/25 08:15:11;;;;;;;147.18;139.43;;;;;;;23.67;64.14;96725.47;5053623;28;20690;-64
2022/08/25 08:17:38;;;;;;;146.45;138.50;;;;;;;23.63;65.27;96734.09;5056538;28;20189;-64
2022/08/25 08:20:07;;;;;;;126.13;119.20;;;;;;;23.38;66.38;96725.97;5056468;28;20218;-64
2022/08/25 08:22:34;;;;;;;71.25;67.28;;;;;;;23.46;66.23;96733.28;5053344;28;20243;-64
2022/08/25 08:25:00;;;;;;;64.97;61.33;;;;;;;23.92;64.89;96722.81;5066246;28;20189;-65
2022/08/25 08:27:25;;;;;;;102.93;97.25;;;;;;;24.14;64.75;96721.09;5071572;28;20227;-64
2022/08/25 08:29:52;;;;;;;180.70;170.88;;;;;;;24.05;64.29;96721.09;5072381;28;20221;-64
2022/08/25 08:32:18;;;;;;;203.30;192.38;;;;;;;23.83;65.28;96724.72;5072731;28;20541;-64
2022/08/25 08:34:44;;;;;;;201.00;190.10;;;;;;;24.02;65.05;96719.03;5055055;28;20197;-64
2022/08/25 08:37:11;;;;;;;108.65;102.70;;;;;;;24.34;63.18;96723.97;5052993;28;20193;-65
2022/08/25 08:39:37;;;;;;;111.05;104.60;;;;;;;24.38;63.18;96716.88;5068693;28;20189;-65
2022/08/25 08:42:17;;;;;;;68.85;64.93;;;;;;;24.43;62.84;96711.34;5072949;28;20242;-63
2022/08/25 08:44:49;;;;;;;37.95;35.75;;;;;;;23.85;64.15;96719.06;5056137;28;20190;-64
2022/08/25 08:47:45;;;;;;;43.05;40.65;;;;;;;24.32;63.15;96709.31;5056430;28;20217;-64
2022/08/25 08:50:29;;;;;;;31.83;29.80;;;;;;;24.14;63.24;96718.41;5055433;28;20215;-64
2022/08/25 08:53:04;;;;;;;28.05;26.30;;;;;;;24.30;63.37;96714.19;5064382;28;20227;-64
2022/08/25 08:55:35;;;;;;;32.80;30.75;;;;;;;24.29;63.73;96713.44;5058126;28;20224;-63
2022/08/25 08:58:08;;;;;;;25.23;23.70;;;;;;;24.79;61.28;96712.88;5071324;28;20185;-65
2022/08/25 09:00:40;;;;;;;20.90;19.52;;;;;;;24.92;60.66;96701.19;5059466;28;20193;-65
2022/08/25 09:03:10;;;;;;;61.42;58.13;;;;;;;24.54;61.03;96706.44;5070887;28;20204;-64
2022/08/25 09:05:46;;;;;;;35.50;33.47;;;;;;;24.46;61.78;96703.78;5058764;28;20192;-64
2022/08/25 09:08:13;;;;;;;105.25;99.60;;;;;;;24.52;61.19;96705.97;5071413;28;20187;-64
2022/08/25 09:10:53;;;;;;;50.20;47.35;;;;;;;24.68;61.48;96699.03;5072496;28;20211;-64
2022/08/25 09:13:34;;;;;;;54.13;50.97;;;;;;;24.13;63.49;96698.88;5072530;28;20659;-64
2022/08/25 09:19:27;;;;;;;111.50;105.63;;;;;;;24.69;60.19;96699.78;4970568;28;20697;-64
2022/08/25 09:21:55;;;;;;;146.15;138.55;;;;;;;24.51;61.07;96695.59;5042323;28;20635;-64
2022/08/25 09:24:42;;;;;;;181.52;172.27;;;;;;;25.10;59.03;96691.97;5058208;28;20200;-66
2022/08/25 09:27:37;;;;;;;166.38;157.52;;;;;;;25.15;58.53;96693.69;5057400;28;20181;-65
2022/08/25 09:30:02;;;;;;;98.97;93.57;;;;;;;25.14;57.93;96689.41;5071743;28;20208;-64
2022/08/25 09:32:34;;;;;;;99.65;93.93;;;;;;;25.01;58.57;96685.06;5063855;28;20173;-63
2022/08/25 09:35:01;;;;;;;100.38;94.63;;;;;;;25.09;57.09;96687.72;5072906;28;20200;-65
2022/08/25 09:37:27;;;;;;;96.43;90.82;;;;;;;24.89;58.76;96695.69;5074740;28;20196;-64
2022/08/25 09:39:52;;;;;;;73.18;68.82;;;;;;;24.93;58.33;96692.03;5075724;28;20189;-64
2022/08/25 09:42:19;;;;;;;86.28;81.47;;;;;;;25.09;57.73;96693.06;5076152;28;20189;-64
2022/08/25 09:44:45;;;;;;;223.35;210.80;;;;;;;25.01;56.95;96688.53;5075992;28;20547;-63
2022/08/25 09:47:16;;;;;;;150.63;142.07;;;;;;;25.11;57.30;96688.19;5059240;28;20181;-63
2022/08/25 09:49:45;;;;;;;217.30;204.80;;;;;;;24.97;56.88;96684.91;5073811;28;20185;-64
2022/08/25 09:52:37;;;;;;;214.60;202.63;;;;;;;25.29;56.57;96678.16;5075019;28;20187;-64
2022/08/25 09:55:12;;;;;;;267.33;252.18;;;;;;;25.03;57.25;96685.53;5064301;28;20227;-64
2022/08/25 09:57:50;;;;;;;242.82;229.70;;;;;;;25.32;55.11;96674.81;5068357;28;20613;-63
2022/08/25 10:00:32;;;;;;;236.13;223.20;;;;;;;24.89;55.83;96672.34;5073374;28;20618;-65
2022/08/25 10:03:33;;;;;;;290.80;274.15;;;;;;;24.88;57.06;96661.91;5056526;28;20182;-64
2022/08/25 10:06:10;;;;;;;336.83;317.40;;;;;;;25.47;55.81;96674.25;4973715;28;20184;-63
2022/08/25 10:08:39;;;;;;;323.33;304.52;;;;;;;25.54;55.37;96671.84;5045828;28;20360;-65
2022/08/25 10:11:14;;;;;;;287.90;272.15;;;;;;;25.10;55.24;96672.41;5055154;28;20186;-65
2022/08/25 10:13:43;;;;;;;283.95;268.30;;;;;;;24.55;56.63;96677.75;5071108;28;20176;-65
2022/08/25 10:16:19;;;;;;;293.83;276.67;;;;;;;24.61;56.96;96666.56;5056610;28;20301;-64
2022/08/25 10:19:04;;;;;;;295.95;278.88;;;;;;;24.93;56.00;96665.22;5057563;28;20623;-66
2022/08/25 10:21:29;;;;;;;294.27;278.08;;;;;;;25.01;55.49;96663.63;5059772;28;20174;-64
2022/08/25 10:23:55;;;;;;;330.67;310.63;;;;;;;25.47;55.49;96655.47;5061992;28;20680;-66
2022/08/25 10:26:58;;;;;;;322.83;303.73;;;;;;;25.76;54.93;96654.69;5059689;28;21954;-65
2022/08/25 10:29:29;;;;;;;300.85;283.90;;;;;;;26.02;53.50;96652.59;5061300;28;20186;-65
2022/08/25 10:32:09;;;;;;;85.35;80.57;;;;;;;25.19;53.35;96649.78;5063750;28;20193;-64
2022/08/25 13:09:23;;;;;;;154.73;146.45;;;;;;;26.91;47.66;96552.69;5059557;28;20589;-65
2022/08/25 13:12:16;;;;;;;173.13;164.23;;;;;;;26.92;47.63;96557.72;5063831;28;20184;-64
2022/08/25 13:14:44;;;;;;;148.68;140.85;;;;;;;27.45;46.92;96561.25;5060274;28;20177;-66
2022/08/25 13:17:10;;;;;;;112.00;105.88;;;;;;;27.34;46.69;96560.16;5050800;28;20194;-65
2022/08/25 13:19:37;;;;;;;115.72;109.80;;;;;;;26.85;47.10;96560.19;5057923;28;20186;-65
2022/08/25 13:22:12;;;;;;;113.78;107.95;;;;;;;27.14;46.81;96553.81;5061673;28;20264;-65
2022/08/25 13:24:43;;;;;;;99.53;94.43;;;;;;;27.19;46.65;96553.56;5056480;28;20649;-65
2022/08/25 13:27:19;;;;;;;79.03;74.97;;;;;;;27.31;45.95;96543.53;5069415;28;20204;-65
2022/08/25 13:29:52;;;;;;;96.97;91.93;;;;;;;27.25;46.54;96536.06;5069320;28;20174;-66
2022/08/25 13:32:27;;;;;;;72.68;68.95;;;;;;;27.38;45.92;96537.59;5051449;28;20182;-66
2022/08/25 13:35:09;;;;;;;91.32;86.38;;;;;;;27.60;45.80;96526.31;5046723;28;20200;-65
2022/08/25 13:37:34;;;;;;;62.40;59.15;;;;;;;27.50;46.17;96528.69;5049211;28;20182;-64
2022/08/25 13:40:08;;;;;;;59.70;56.50;;;;;;;27.66;46.09;96521.47;5056511;28;20184;-64
2022/08/25 13:42:35;;;;;;;49.83;47.13;;;;;;;27.87;45.32;96522.06;5042748;28;20196;-64
2022/08/25 13:45:04;;;;;;;37.05;35.08;;;;;;;27.97;45.41;96515.41;5064579;28;20184;-65
2022/08/25 13:47:38;;;;;;;138.88;131.52;;;;;;;28.16;44.53;96514.75;5066914;28;20216;-65
2022/08/25 13:50:29;;;;;;;248.02;234.52;;;;;;;28.25;44.14;96513.47;5061770;28;20181;-66
2022/08/25 13:52:59;;;;;;;152.57;144.77;;;;;;;28.23;43.79;96515.72;5067378;28;20193;-64
2022/08/25 13:55:35;;;;;;;160.02;151.60;;;;;;;27.69;44.60;96518.91;5064186;28;20194;-67
2022/08/25 13:58:03;;;;;;;179.10;169.25;;;;;;;27.53;44.89;96515.34;5047522;28;20197;-65
2022/08/25 14:00:39;;;;;;;180.75;170.85;;;;;;;27.54;45.13;96508.06;5048665;28;20186;-65